Time;durP1;ratioP1;P1;durP2;ratioP2;P2;SDS_P1;SDS_P2;PMS_P1;PMS_P2;Temp;Humidity;BMP_temperature;BMP_pressure;BME280_temperature;BME280_humidity;BME280_pressure;Samples;Min_cycle;Max_cycle;Signal;HPM_P1;HPM_P2
2022/11/09 00:01:27;;;;;;;0.77;0.45;;;17.00;59.40;;;;;;20680315;28;20038;-73
2022/11/09 00:11:28;;;;;;;1.50;0.40;;;17.00;59.40;;;;;;20656503;28;20092;-74
2022/11/09 00:21:28;;;;;;;1.05;0.30;;;17.00;59.50;;;;;;20678251;28;20034;-72
2022/11/09 00:31:30;;;;;;;0.98;0.40;;;17.00;59.50;;;;;;20676970;28;20034;-73
2022/11/09 00:41:32;;;;;;;1.40;0.40;;;16.90;59.70;;;;;;20677101;28;20497;-73
2022/11/09 00:51:33;;;;;;;0.85;0.47;;;16.90;59.60;;;;;;20660103;28;20042;-72
2022/11/09 01:01:33;;;;;;;0.88;0.43;;;16.90;59.60;;;;;;20659429;28;20084;-73
2022/11/09 01:11:35;;;;;;;0.82;0.40;;;16.90;59.60;;;;;;20647294;28;20494;-73
2022/11/09 01:21:35;;;;;;;0.57;0.40;;;16.90;59.70;;;;;;20666115;28;20125;-72
2022/11/09 01:31:36;;;;;;;1.15;0.50;;;16.90;59.70;;;;;;20659731;28;20034;-73
2022/11/09 01:41:37;;;;;;;1.98;0.70;;;16.90;59.70;;;;;;20665774;28;20068;-73
2022/11/09 01:51:53;;;;;;;0.93;0.43;;;16.90;59.80;;;;;;20654936;28;20033;-72
2022/11/09 02:01:54;;;;;;;0.50;0.33;;;16.90;59.90;;;;;;20682024;28;20054;-73
2022/11/09 02:11:55;;;;;;;1.15;0.40;;;16.80;59.90;;;;;;21033675;23;20495;-74
2022/11/09 02:21:55;;;;;;;1.13;0.60;;;16.80;60.00;;;;;;20666490;28;20050;-74
2022/11/09 02:32:01;;;;;;;0.30;0.30;;;16.80;60.00;;;;;;20689058;28;20026;-74
2022/11/09 02:42:05;;;;;;;0.30;0.30;;;16.80;60.00;;;;;;20670753;28;20046;-73
2022/11/09 02:52:08;;;;;;;;;;;16.80;60.00;;;;;;20679694;28;20109;-74
2022/11/09 03:02:09;;;;;;;0.85;0.35;;;16.80;60.10;;;;;;20673451;28;20395;-73
2022/11/09 03:12:28;;;;;;;1.13;0.60;;;16.80;60.10;;;;;;20691202;28;20031;-74
2022/11/09 03:22:30;;;;;;;0.52;0.38;;;16.80;60.20;;;;;;20681689;28;20065;-74
2022/11/09 03:32:31;;;;;;;0.85;0.20;;;16.80;60.20;;;;;;20638330;28;20069;-74
2022/11/09 03:42:32;;;;;;;0.43;0.35;;;16.80;60.30;;;;;;20665875;28;20116;-74
2022/11/09 03:52:33;;;;;;;0.40;0.40;;;16.70;60.20;;;;;;20664881;28;20037;-74
2022/11/09 04:02:34;;;;;;;1.33;0.28;;;16.70;60.30;;;;;;20680339;28;20042;-73
2022/11/09 04:12:34;;;;;;;0.60;0.30;;;16.80;60.40;;;;;;20679757;28;20053;-74
2022/11/09 04:22:35;;;;;;;0.20;0.20;;;16.70;60.30;;;;;;20640089;28;20297;-74
2022/11/09 04:32:35;;;;;;;0.40;0.30;;;16.70;60.40;;;;;;20666162;28;20281;-74
2022/11/09 04:42:36;;;;;;;0.50;0.30;;;16.80;60.50;;;;;;20662300;28;20053;-74
2022/11/09 04:52:38;;;;;;;0.87;0.23;;;16.80;60.50;;;;;;20651758;28;20567;-73
2022/11/09 05:02:39;;;;;;;0.45;0.30;;;16.70;60.50;;;;;;20636035;28;20038;-73
2022/11/09 05:12:39;;;;;;;0.45;0.20;;;16.70;60.60;;;;;;20677798;28;20033;-73
2022/11/09 05:32:59;;;;;;;0.50;0.30;;;16.70;60.70;;;;;;20682734;28;20784;-74
2022/11/09 05:42:59;;;;;;;0.30;0.30;;;16.70;60.70;;;;;;20675719;28;20041;-74
2022/11/09 05:53:00;;;;;;;0.32;0.22;;;16.60;60.70;;;;;;20643286;28;20828;-74
2022/11/09 06:03:08;;;;;;;0.88;0.43;;;16.70;60.90;;;;;;20665428;28;20473;-73
2022/11/09 06:13:09;;;;;;;0.55;0.32;;;16.60;60.90;;;;;;20656807;28;20053;-78
2022/11/09 06:23:12;;;;;;;0.50;0.22;;;16.60;61.00;;;;;;20654891;28;20069;-75
2022/11/09 06:33:12;;;;;;;0.70;0.40;;;16.70;61.10;;;;;;20692830;28;21160;-76
2022/11/09 06:43:13;;;;;;;0.85;0.45;;;16.60;61.20;;;;;;20678017;28;20138;-74
2022/11/09 06:53:15;;;;;;;0.43;0.30;;;16.60;61.20;;;;;;20658524;28;20327;-74
2022/11/09 07:03:16;;;;;;;0.98;0.45;;;16.60;61.30;;;;;;20687893;28;20305;-74
2022/11/09 07:13:17;;;;;;;0.63;0.60;;;16.60;61.50;;;;;;20664714;28;20050;-75
2022/11/09 07:23:17;;;;;;;1.13;0.50;;;16.60;61.60;;;;;;20670461;28;20034;-75
2022/11/09 07:33:18;;;;;;;3.45;0.40;;;16.60;61.70;;;;;;20675400;28;20109;-75
2022/11/09 07:43:19;;;;;;;2.15;0.60;;;16.60;61.80;;;;;;20656978;28;20495;-75
2022/11/09 07:53:24;;;;;;;0.57;0.30;;;16.60;61.80;;;;;;20671807;28;20056;-70
2022/11/09 08:03:24;;;;;;;0.35;0.35;;;16.60;61.80;;;;;;20675251;28;20046;-70
2022/11/09 08:13:25;;;;;;;1.23;0.60;;;16.50;61.80;;;;;;20676444;28;20048;-68
2022/11/09 08:23:26;;;;;;;0.68;0.35;;;16.50;61.80;;;;;;20653832;28;20042;-74
2022/11/09 08:33:29;;;;;;;0.55;0.40;;;16.50;62.00;;;;;;20644792;28;20042;-73
2022/11/09 08:43:30;;;;;;;1.60;0.45;;;16.50;62.20;;;;;;20668171;28;20046;-73
2022/11/09 08:53:30;;;;;;;1.55;0.60;;;16.50;62.20;;;;;;20679727;28;20034;-72
2022/11/09 09:03:31;;;;;;;0.82;0.40;;;16.50;62.20;;;;;;20663977;28;20041;-74
2022/11/09 09:13:32;;;;;;;0.43;0.35;;;16.50;62.20;;;;;;20652716;28;20033;-73
2022/11/09 09:23:32;;;;;;;1.45;0.50;;;16.50;62.20;;;;;;20671157;28;20045;-72
2022/11/09 09:33:33;;;;;;;0.50;0.20;;;16.50;62.20;;;;;;20680564;28;20030;-72
2022/11/09 09:43:42;;;;;;;0.20;0.20;;;16.50;62.20;;;;;;20693931;28;20042;-73
2022/11/09 09:53:46;;;;;;;0.85;0.38;;;16.50;62.10;;;;;;20681450;28;20395;-72
2022/11/09 10:03:48;;;;;;;0.88;0.30;;;16.60;62.10;;;;;;20665528;28;20042;-72
2022/11/09 10:13:56;;;;;;;0.20;0.20;;;16.60;62.10;;;;;;20679954;28;20050;-72
2022/11/09 10:24:09;;;;;;;0.47;0.30;;;16.50;62.10;;;;;;20679894;28;20046;-72
2022/11/09 10:34:27;;;;;;;1.20;0.30;;;16.50;62.20;;;;;;20650697;28;20077;-70
2022/11/09 10:44:28;;;;;;;0.73;0.50;;;16.50;62.30;;;;;;20691247;28;20072;-72
2022/11/09 10:54:47;;;;;;;0.68;0.40;;;16.50;62.40;;;;;;20693466;28;20389;-74
2022/11/09 11:05:06;;;;;;;0.20;0.20;;;16.50;62.70;;;;;;20673902;28;20493;-74
2022/11/09 11:15:40;;;;;;;0.50;0.40;;;16.50;62.80;;;;;;20690639;28;20489;-73
2022/11/09 11:26:14;;;;;;;0.43;0.30;;;16.50;62.90;;;;;;20685590;28;20042;-71
2022/11/09 11:36:51;;;;;;;0.57;0.32;;;16.50;63.00;;;;;;20673627;28;20034;-73
2022/11/09 11:47:24;;;;;;;0.47;0.32;;;16.50;63.00;;;;;;20665402;28;20042;-71
2022/11/09 11:58:09;;;;;;;0.90;0.30;;;16.40;63.80;;;;;;20670263;28;20033;-71
2022/11/09 12:08:50;;;;;;;0.38;0.30;;;16.40;64.00;;;;;;20699737;28;20125;-70
2022/11/09 12:19:28;;;;;;;0.75;0.43;;;16.40;63.90;;;;;;20687656;28;20117;-70
2022/11/09 12:30:15;;;;;;;1.30;0.40;;;16.40;63.80;;;;;;20691048;28;20050;-72
2022/11/09 12:40:37;;;;;;;0.88;0.30;;;16.40;63.80;;;;;;20698093;28;20481;-72
2022/11/09 12:50:57;;;;;;;0.68;0.43;;;16.40;63.70;;;;;;20690839;28;20033;-72
2022/11/09 13:01:25;;;;;;;0.77;0.30;;;16.40;63.90;;;;;;20651758;28;20069;-73
2022/11/09 13:11:49;;;;;;;0.65;0.35;;;16.40;63.90;;;;;;20691263;28;20049;-73
2022/11/09 13:22:11;;;;;;;1.58;0.40;;;16.40;64.00;;;;;;20681962;28;20042;-73
2022/11/09 13:32:32;;;;;;;0.20;0.20;;;16.40;64.00;;;;;;20699862;28;20745;-73
2022/11/09 13:43:01;;;;;;;0.60;0.50;;;16.40;63.90;;;;;;20671986;28;20042;-72
2022/11/09 13:53:28;;;;;;;0.77;0.30;;;16.40;63.80;;;;;;20681866;28;20039;-71
2022/11/09 14:30:16;;;;;;;0.60;0.20;;;20.60;69.20;;;;;;21309657;27;20328;-72
